sensor_id;sensor_type;location;lat;lon;timestamp;P1;durP1;ratioP1;P2;durP2;ratioP2
7653;SDS011;3869;48.406;10.774;2022-08-04T00:00:03;1005.80;;;911.90;;
7653;SDS011;3869;48.406;10.774;2022-08-04T00:05:32;981.17;;;889.67;;
7653;SDS011;3869;48.406;10.774;2022-08-04T00:08:10;948.47;;;859.83;;
7653;SDS011;3869;48.406;10.774;2022-08-04T00:10:47;986.63;;;892.67;;
7653;SDS011;3869;48.406;10.774;2022-08-04T00:13:16;969.07;;;879.00;;
7653;SDS011;3869;48.406;10.774;2022-08-04T00:15:50;974.00;;;883.43;;
7653;SDS011;3869;48.406;10.774;2022-08-04T00:18:20;995.03;;;901.47;;
7653;SDS011;3869;48.406;10.774;2022-08-04T00:20:54;985.27;;;893.07;;
7653;SDS011;3869;48.406;10.774;2022-08-04T00:23:26;969.73;;;877.47;;
7653;SDS011;3869;48.406;10.774;2022-08-04T00:26:16;956.40;;;866.23;;
7653;SDS011;3869;48.406;10.774;2022-08-04T00:28:44;992.83;;;900.33;;
7653;SDS011;3869;48.406;10.774;2022-08-04T00:31:14;961.77;;;873.30;;
7653;SDS011;3869;48.406;10.774;2022-08-04T00:33:44;970.33;;;880.77;;
7653;SDS011;3869;48.406;10.774;2022-08-04T00:36:15;1018.47;;;921.50;;
7653;SDS011;3869;48.406;10.774;2022-08-04T00:38:44;1007.47;;;911.43;;
7653;SDS011;3869;48.406;10.774;2022-08-04T00:41:16;996.50;;;901.03;;
7653;SDS011;3869;48.406;10.774;2022-08-04T00:43:51;983.13;;;891.63;;
7653;SDS011;3869;48.406;10.774;2022-08-04T00:46:51;996.13;;;903.43;;
7653;SDS011;3869;48.406;10.774;2022-08-04T00:49:32;1020.67;;;926.70;;
7653;SDS011;3869;48.406;10.774;2022-08-04T00:52:28;1002.67;;;908.87;;
7653;SDS011;3869;48.406;10.774;2022-08-04T00:55:04;1008.83;;;914.07;;
7653;SDS011;3869;48.406;10.774;2022-08-04T00:57:54;989.97;;;897.90;;
7653;SDS011;3869;48.406;10.774;2022-08-04T01:00:46;940.10;;;852.63;;
7653;SDS011;3869;48.406;10.774;2022-08-04T01:03:23;987.17;;;894.40;;
7653;SDS011;3869;48.406;10.774;2022-08-04T01:06:15;990.33;;;898.97;;
7653;SDS011;3869;48.406;10.774;2022-08-04T01:08:59;1029.77;;;932.90;;
7653;SDS011;3869;48.406;10.774;2022-08-04T01:11:42;1016.53;;;921.37;;
7653;SDS011;3869;48.406;10.774;2022-08-04T01:14:26;983.77;;;891.87;;
7653;SDS011;3869;48.406;10.774;2022-08-04T01:17:11;1024.17;;;927.77;;
7653;SDS011;3869;48.406;10.774;2022-08-04T01:19:53;1017.97;;;921.30;;
7653;SDS011;3869;48.406;10.774;2022-08-04T01:25:38;969.30;;;878.13;;
7653;SDS011;3869;48.406;10.774;2022-08-04T01:28:29;1009.23;;;913.83;;
7653;SDS011;3869;48.406;10.774;2022-08-04T01:31:13;1005.93;;;912.57;;
7653;SDS011;3869;48.406;10.774;2022-08-04T01:33:46;1002.50;;;910.80;;
7653;SDS011;3869;48.406;10.774;2022-08-04T01:36:30;985.73;;;894.80;;
7653;SDS011;3869;48.406;10.774;2022-08-04T01:39:01;1015.87;;;920.17;;
7653;SDS011;3869;48.406;10.774;2022-08-04T01:41:51;1025.40;;;929.33;;
7653;SDS011;3869;48.406;10.774;2022-08-04T01:44:23;1014.53;;;919.00;;
7653;SDS011;3869;48.406;10.774;2022-08-04T01:46:55;976.63;;;883.47;;
7653;SDS011;3869;48.406;10.774;2022-08-04T01:49:23;1001.63;;;906.43;;
7653;SDS011;3869;48.406;10.774;2022-08-04T01:52:08;1026.37;;;932.97;;
7653;SDS011;3869;48.406;10.774;2022-08-04T01:54:37;1035.70;;;938.40;;
7653;SDS011;3869;48.406;10.774;2022-08-04T01:57:09;1030.90;;;936.10;;
7653;SDS011;3869;48.406;10.774;2022-08-04T01:59:58;978.47;;;887.23;;
7653;SDS011;3869;48.406;10.774;2022-08-04T02:02:28;999.03;;;903.70;;
7653;SDS011;3869;48.406;10.774;2022-08-04T02:04:57;1014.93;;;918.93;;
7653;SDS011;3869;48.406;10.774;2022-08-04T02:07:31;1041.70;;;941.70;;
7653;SDS011;3869;48.406;10.774;2022-08-04T02:10:11;1003.77;;;909.67;;
7653;SDS011;3869;48.406;10.774;2022-08-04T02:12:52;993.40;;;900.63;;
7653;SDS011;3869;48.406;10.774;2022-08-04T02:15:29;989.43;;;897.13;;
7653;SDS011;3869;48.406;10.774;2022-08-04T02:18:08;1017.17;;;922.60;;
7653;SDS011;3869;48.406;10.774;2022-08-04T02:20:45;973.43;;;881.13;;
7653;SDS011;3869;48.406;10.774;2022-08-04T02:23:15;973.60;;;883.47;;
7653;SDS011;3869;48.406;10.774;2022-08-04T02:25:54;1002.10;;;907.37;;
7653;SDS011;3869;48.406;10.774;2022-08-04T02:28:25;982.23;;;888.20;;
7653;SDS011;3869;48.406;10.774;2022-08-04T02:31:05;1028.40;;;932.30;;
7653;SDS011;3869;48.406;10.774;2022-08-04T02:33:46;978.57;;;885.10;;
7653;SDS011;3869;48.406;10.774;2022-08-04T02:36:22;988.67;;;898.00;;
7653;SDS011;3869;48.406;10.774;2022-08-04T02:38:58;984.80;;;894.63;;
7653;SDS011;3869;48.406;10.774;2022-08-04T02:41:28;1030.80;;;934.00;;
7653;SDS011;3869;48.406;10.774;2022-08-04T02:43:57;949.33;;;861.60;;
7653;SDS011;3869;48.406;10.774;2022-08-04T02:46:27;1020.87;;;924.90;;
7653;SDS011;3869;48.406;10.774;2022-08-04T02:48:57;971.70;;;881.67;;
7653;SDS011;3869;48.406;10.774;2022-08-04T02:51:29;1005.07;;;912.50;;
7653;SDS011;3869;48.406;10.774;2022-08-04T02:54:01;996.13;;;904.50;;
7653;SDS011;3869;48.406;10.774;2022-08-04T02:56:32;997.80;;;905.43;;
7653;SDS011;3869;48.406;10.774;2022-08-04T02:59:05;1043.07;;;945.00;;
7653;SDS011;3869;48.406;10.774;2022-08-04T03:01:34;1008.80;;;915.00;;
7653;SDS011;3869;48.406;10.774;2022-08-04T03:04:28;1033.43;;;936.53;;
7653;SDS011;3869;48.406;10.774;2022-08-04T03:07:33;988.63;;;897.13;;
7653;SDS011;3869;48.406;10.774;2022-08-04T03:13:45;1007.43;;;912.27;;
7653;SDS011;3869;48.406;10.774;2022-08-04T03:16:43;1000.80;;;908.10;;
7653;SDS011;3869;48.406;10.774;2022-08-04T03:19:41;974.57;;;883.43;;
7653;SDS011;3869;48.406;10.774;2022-08-04T03:25:58;944.73;;;856.23;;
7653;SDS011;3869;48.406;10.774;2022-08-04T03:28:55;1004.20;;;908.80;;
7653;SDS011;3869;48.406;10.774;2022-08-04T03:32:09;1023.17;;;927.07;;
7653;SDS011;3869;48.406;10.774;2022-08-04T03:35:01;1020.83;;;923.80;;
7653;SDS011;3869;48.406;10.774;2022-08-04T03:38:02;963.97;;;876.67;;
7653;SDS011;3869;48.406;10.774;2022-08-04T03:50:45;949.00;;;863.83;;
7653;SDS011;3869;48.406;10.774;2022-08-04T03:54:07;1011.40;;;916.47;;
7653;SDS011;3869;48.406;10.774;2022-08-04T03:57:09;993.20;;;899.73;;
7653;SDS011;3869;48.406;10.774;2022-08-04T04:00:05;945.00;;;856.47;;
7653;SDS011;3869;48.406;10.774;2022-08-04T04:05:59;1022.30;;;926.80;;
7653;SDS011;3869;48.406;10.774;2022-08-04T04:12:21;970.53;;;880.80;;
7653;SDS011;3869;48.406;10.774;2022-08-04T04:15:03;986.37;;;895.00;;
7653;SDS011;3869;48.406;10.774;2022-08-04T04:17:44;1012.50;;;915.80;;
7653;SDS011;3869;48.406;10.774;2022-08-04T04:20:36;1035.27;;;937.17;;
7653;SDS011;3869;48.406;10.774;2022-08-04T04:23:34;993.13;;;900.47;;
7653;SDS011;3869;48.406;10.774;2022-08-04T04:29:28;964.83;;;874.90;;
7653;SDS011;3869;48.406;10.774;2022-08-04T04:32:12;1014.57;;;920.33;;
7653;SDS011;3869;48.406;10.774;2022-08-04T04:35:06;974.60;;;882.20;;
7653;SDS011;3869;48.406;10.774;2022-08-04T04:37:53;977.03;;;885.60;;
7653;SDS011;3869;48.406;10.774;2022-08-04T04:40:39;1027.93;;;931.80;;
7653;SDS011;3869;48.406;10.774;2022-08-04T04:43:23;1014.80;;;917.63;;
7653;SDS011;3869;48.406;10.774;2022-08-04T04:46:20;1008.43;;;915.00;;
7653;SDS011;3869;48.406;10.774;2022-08-04T04:49:00;966.67;;;877.00;;
7653;SDS011;3869;48.406;10.774;2022-08-04T04:51:36;1028.23;;;932.77;;
7653;SDS011;3869;48.406;10.774;2022-08-04T04:54:10;958.07;;;867.97;;
7653;SDS011;3869;48.406;10.774;2022-08-04T04:56:47;1047.43;;;948.67;;
7653;SDS011;3869;48.406;10.774;2022-08-04T04:59:25;1005.03;;;910.70;;
7653;SDS011;3869;48.406;10.774;2022-08-04T05:02:06;1026.17;;;930.47;;
7653;SDS011;3869;48.406;10.774;2022-08-04T05:04:54;980.87;;;888.10;;
7653;SDS011;3869;48.406;10.774;2022-08-04T05:07:49;1022.23;;;927.10;;
7653;SDS011;3869;48.406;10.774;2022-08-04T05:10:59;1044.27;;;946.17;;
7653;SDS011;3869;48.406;10.774;2022-08-04T05:13:51;981.73;;;891.33;;
7653;SDS011;3869;48.406;10.774;2022-08-04T05:16:42;1023.17;;;928.03;;
7653;SDS011;3869;48.406;10.774;2022-08-04T05:19:16;1043.00;;;943.73;;
7653;SDS011;3869;48.406;10.774;2022-08-04T05:21:49;1033.13;;;936.90;;
7653;SDS011;3869;48.406;10.774;2022-08-04T05:24:23;1021.67;;;925.63;;
7653;SDS011;3869;48.406;10.774;2022-08-04T05:27:01;1018.23;;;923.30;;
7653;SDS011;3869;48.406;10.774;2022-08-04T05:29:37;1034.77;;;937.20;;
7653;SDS011;3869;48.406;10.774;2022-08-04T05:32:13;1055.83;;;957.57;;
7653;SDS011;3869;48.406;10.774;2022-08-04T05:34:44;1020.77;;;926.27;;
7653;SDS011;3869;48.406;10.774;2022-08-04T05:37:18;1009.43;;;914.47;;
7653;SDS011;3869;48.406;10.774;2022-08-04T05:39:54;1039.77;;;941.20;;
7653;SDS011;3869;48.406;10.774;2022-08-04T05:42:24;996.57;;;903.40;;
7653;SDS011;3869;48.406;10.774;2022-08-04T05:44:54;1011.53;;;916.20;;
7653;SDS011;3869;48.406;10.774;2022-08-04T05:47:23;1005.57;;;912.13;;
7653;SDS011;3869;48.406;10.774;2022-08-04T05:49:55;979.37;;;887.87;;
7653;SDS011;3869;48.406;10.774;2022-08-04T05:52:28;1034.67;;;935.70;;
7653;SDS011;3869;48.406;10.774;2022-08-04T05:54:57;1044.83;;;944.80;;
7653;SDS011;3869;48.406;10.774;2022-08-04T05:57:26;1030.83;;;933.20;;
7653;SDS011;3869;48.406;10.774;2022-08-04T05:59:58;1013.10;;;918.53;;
7653;SDS011;3869;48.406;10.774;2022-08-04T06:02:49;996.70;;;904.33;;
7653;SDS011;3869;48.406;10.774;2022-08-04T06:05:19;993.77;;;901.83;;
7653;SDS011;3869;48.406;10.774;2022-08-04T06:07:50;984.70;;;893.87;;
7653;SDS011;3869;48.406;10.774;2022-08-04T06:10:38;964.73;;;874.37;;
7653;SDS011;3869;48.406;10.774;2022-08-04T06:13:07;985.53;;;893.80;;
7653;SDS011;3869;48.406;10.774;2022-08-04T06:16:01;1007.07;;;913.50;;
7653;SDS011;3869;48.406;10.774;2022-08-04T06:18:31;982.77;;;891.80;;
7653;SDS011;3869;48.406;10.774;2022-08-04T06:21:21;1004.43;;;911.33;;
7653;SDS011;3869;48.406;10.774;2022-08-04T06:23:50;1025.70;;;929.00;;
7653;SDS011;3869;48.406;10.774;2022-08-04T06:26:29;969.90;;;880.17;;
7653;SDS011;3869;48.406;10.774;2022-08-04T06:29:00;975.23;;;885.03;;
7653;SDS011;3869;48.406;10.774;2022-08-04T06:31:31;939.03;;;854.37;;
7653;SDS011;3869;48.406;10.774;2022-08-04T06:34:31;927.47;;;842.87;;
7653;SDS011;3869;48.406;10.774;2022-08-04T06:37:01;938.40;;;852.83;;
7653;SDS011;3869;48.406;10.774;2022-08-04T06:39:30;938.47;;;851.90;;
7653;SDS011;3869;48.406;10.774;2022-08-04T06:41:59;942.43;;;856.27;;
7653;SDS011;3869;48.406;10.774;2022-08-04T06:44:48;939.03;;;851.90;;
7653;SDS011;3869;48.406;10.774;2022-08-04T06:47:19;902.07;;;822.07;;
7653;SDS011;3869;48.406;10.774;2022-08-04T06:49:50;922.33;;;839.03;;
7653;SDS011;3869;48.406;10.774;2022-08-04T06:52:39;955.07;;;868.33;;
7653;SDS011;3869;48.406;10.774;2022-08-04T06:55:07;922.67;;;839.03;;
7653;SDS011;3869;48.406;10.774;2022-08-04T06:57:36;884.73;;;805.10;;
7653;SDS011;3869;48.406;10.774;2022-08-04T07:00:08;911.90;;;829.67;;
7653;SDS011;3869;48.406;10.774;2022-08-04T07:02:40;928.20;;;844.33;;
7653;SDS011;3869;48.406;10.774;2022-08-04T07:05:11;939.57;;;854.13;;
7653;SDS011;3869;48.406;10.774;2022-08-04T07:07:39;926.60;;;842.60;;
7653;SDS011;3869;48.406;10.774;2022-08-04T07:10:24;906.90;;;824.43;;
7653;SDS011;3869;48.406;10.774;2022-08-04T07:12:53;885.43;;;804.47;;
7653;SDS011;3869;48.406;10.774;2022-08-04T07:15:23;905.67;;;824.50;;
7653;SDS011;3869;48.406;10.774;2022-08-04T07:17:54;907.60;;;824.40;;
7653;SDS011;3869;48.406;10.774;2022-08-04T07:20:25;927.73;;;843.83;;
7653;SDS011;3869;48.406;10.774;2022-08-04T07:23:01;934.03;;;851.40;;
7653;SDS011;3869;48.406;10.774;2022-08-04T07:25:30;899.50;;;816.83;;
7653;SDS011;3869;48.406;10.774;2022-08-04T07:28:19;866.60;;;787.03;;
7653;SDS011;3869;48.406;10.774;2022-08-04T07:30:48;905.10;;;822.93;;
7653;SDS011;3869;48.406;10.774;2022-08-04T07:33:18;901.33;;;821.00;;
7653;SDS011;3869;48.406;10.774;2022-08-04T07:35:48;870.63;;;792.20;;
7653;SDS011;3869;48.406;10.774;2022-08-04T07:38:36;853.37;;;777.87;;
7653;SDS011;3869;48.406;10.774;2022-08-04T07:41:18;905.30;;;824.07;;
7653;SDS011;3869;48.406;10.774;2022-08-04T07:44:05;846.87;;;770.87;;
7653;SDS011;3869;48.406;10.774;2022-08-04T07:46:34;885.27;;;806.03;;
7653;SDS011;3869;48.406;10.774;2022-08-04T07:49:04;849.07;;;772.57;;
7653;SDS011;3869;48.406;10.774;2022-08-04T07:51:33;859.87;;;781.83;;
7653;SDS011;3869;48.406;10.774;2022-08-04T07:54:03;860.77;;;783.57;;
7653;SDS011;3869;48.406;10.774;2022-08-04T07:56:33;837.93;;;762.37;;
7653;SDS011;3869;48.406;10.774;2022-08-04T07:59:03;817.10;;;743.00;;
7653;SDS011;3869;48.406;10.774;2022-08-04T08:01:31;857.40;;;780.80;;
7653;SDS011;3869;48.406;10.774;2022-08-04T08:04:01;846.27;;;770.10;;
7653;SDS011;3869;48.406;10.774;2022-08-04T08:06:35;871.17;;;792.87;;
7653;SDS011;3869;48.406;10.774;2022-08-04T08:09:09;841.73;;;766.33;;
7653;SDS011;3869;48.406;10.774;2022-08-04T08:11:40;835.37;;;762.47;;
7653;SDS011;3869;48.406;10.774;2022-08-04T08:14:28;863.70;;;786.00;;
7653;SDS011;3869;48.406;10.774;2022-08-04T08:16:57;832.00;;;758.33;;
7653;SDS011;3869;48.406;10.774;2022-08-04T08:19:27;827.60;;;753.17;;
7653;SDS011;3869;48.406;10.774;2022-08-04T08:21:57;860.07;;;782.57;;
7653;SDS011;3869;48.406;10.774;2022-08-04T08:24:27;834.17;;;758.13;;
7653;SDS011;3869;48.406;10.774;2022-08-04T08:26:56;778.80;;;707.43;;
7653;SDS011;3869;48.406;10.774;2022-08-04T08:29:25;843.80;;;768.63;;
7653;SDS011;3869;48.406;10.774;2022-08-04T08:31:55;835.67;;;761.57;;
7653;SDS011;3869;48.406;10.774;2022-08-04T08:34:32;845.37;;;770.47;;
7653;SDS011;3869;48.406;10.774;2022-08-04T08:37:03;816.63;;;743.27;;
7653;SDS011;3869;48.406;10.774;2022-08-04T08:39:40;805.70;;;732.53;;
7653;SDS011;3869;48.406;10.774;2022-08-04T08:42:15;824.63;;;751.47;;
7653;SDS011;3869;48.406;10.774;2022-08-04T08:45:02;814.50;;;740.73;;
7653;SDS011;3869;48.406;10.774;2022-08-04T08:48:03;798.13;;;726.83;;
7653;SDS011;3869;48.406;10.774;2022-08-04T08:50:53;819.63;;;745.23;;
7653;SDS011;3869;48.406;10.774;2022-08-04T08:53:54;782.10;;;711.40;;
7653;SDS011;3869;48.406;10.774;2022-08-04T08:56:36;815.03;;;740.93;;
7653;SDS011;3869;48.406;10.774;2022-08-04T08:59:15;782.50;;;711.63;;
7653;SDS011;3869;48.406;10.774;2022-08-04T09:02:00;790.97;;;720.10;;
7653;SDS011;3869;48.406;10.774;2022-08-04T09:04:56;844.57;;;770.60;;
7653;SDS011;3869;48.406;10.774;2022-08-04T09:07:50;787.17;;;715.97;;
7653;SDS011;3869;48.406;10.774;2022-08-04T09:10:30;808.00;;;735.30;;
7653;SDS011;3869;48.406;10.774;2022-08-04T09:13:07;813.47;;;741.33;;
7653;SDS011;3869;48.406;10.774;2022-08-04T09:15:51;785.33;;;716.43;;
7653;SDS011;3869;48.406;10.774;2022-08-04T09:18:31;901.83;;;820.17;;
7653;SDS011;3869;48.406;10.774;2022-08-04T09:21:11;854.60;;;774.30;;
7653;SDS011;3869;48.406;10.774;2022-08-04T09:23:45;894.67;;;812.87;;
7653;SDS011;3869;48.406;10.774;2022-08-04T09:26:23;846.30;;;768.43;;
7653;SDS011;3869;48.406;10.774;2022-08-04T09:29:00;878.90;;;800.13;;
7653;SDS011;3869;48.406;10.774;2022-08-04T09:31:34;844.90;;;768.80;;
7653;SDS011;3869;48.406;10.774;2022-08-04T09:34:33;835.70;;;760.23;;
7653;SDS011;3869;48.406;10.774;2022-08-04T09:37:12;835.77;;;759.20;;
7653;SDS011;3869;48.406;10.774;2022-08-04T09:39:46;850.73;;;775.27;;
7653;SDS011;3869;48.406;10.774;2022-08-04T09:42:27;849.33;;;773.17;;
7653;SDS011;3869;48.406;10.774;2022-08-04T09:45:07;819.80;;;746.23;;
7653;SDS011;3869;48.406;10.774;2022-08-04T09:47:53;833.73;;;759.37;;
7653;SDS011;3869;48.406;10.774;2022-08-04T09:50:32;847.17;;;772.07;;
7653;SDS011;3869;48.406;10.774;2022-08-04T09:53:17;842.00;;;766.10;;
7653;SDS011;3869;48.406;10.774;2022-08-04T09:55:57;860.97;;;782.60;;
7653;SDS011;3869;48.406;10.774;2022-08-04T09:58:39;857.33;;;781.50;;
7653;SDS011;3869;48.406;10.774;2022-08-04T10:01:17;803.47;;;731.27;;
7653;SDS011;3869;48.406;10.774;2022-08-04T10:03:49;857.57;;;781.93;;
7653;SDS011;3869;48.406;10.774;2022-08-04T10:06:31;818.77;;;744.80;;
7653;SDS011;3869;48.406;10.774;2022-08-04T10:09:12;804.67;;;732.27;;
7653;SDS011;3869;48.406;10.774;2022-08-04T10:12:07;852.13;;;775.87;;
7653;SDS011;3869;48.406;10.774;2022-08-04T10:14:52;798.43;;;726.47;;
7653;SDS011;3869;48.406;10.774;2022-08-04T10:17:30;815.47;;;743.37;;
7653;SDS011;3869;48.406;10.774;2022-08-04T10:20:18;859.27;;;782.70;;
7653;SDS011;3869;48.406;10.774;2022-08-04T10:23:15;768.67;;;700.97;;
7653;SDS011;3869;48.406;10.774;2022-08-04T10:25:58;838.73;;;765.17;;
7653;SDS011;3869;48.406;10.774;2022-08-04T10:28:35;804.67;;;731.83;;
7653;SDS011;3869;48.406;10.774;2022-08-04T10:31:11;813.87;;;742.10;;
7653;SDS011;3869;48.406;10.774;2022-08-04T10:33:48;820.60;;;746.70;;
7653;SDS011;3869;48.406;10.774;2022-08-04T10:36:20;819.30;;;744.97;;
7653;SDS011;3869;48.406;10.774;2022-08-04T10:38:55;818.97;;;746.27;;
7653;SDS011;3869;48.406;10.774;2022-08-04T10:41:29;798.50;;;726.23;;
7653;SDS011;3869;48.406;10.774;2022-08-04T10:44:05;793.33;;;722.07;;
7653;SDS011;3869;48.406;10.774;2022-08-04T10:46:44;832.50;;;759.53;;
7653;SDS011;3869;48.406;10.774;2022-08-04T10:49:20;816.43;;;743.83;;
7653;SDS011;3869;48.406;10.774;2022-08-04T10:51:50;812.90;;;741.23;;
7653;SDS011;3869;48.406;10.774;2022-08-04T10:54:26;831.77;;;758.37;;
7653;SDS011;3869;48.406;10.774;2022-08-04T10:56:59;814.87;;;742.97;;
7653;SDS011;3869;48.406;10.774;2022-08-04T10:59:33;789.80;;;718.60;;
7653;SDS011;3869;48.406;10.774;2022-08-04T11:02:11;820.70;;;748.53;;
7653;SDS011;3869;48.406;10.774;2022-08-04T11:04:53;784.53;;;713.53;;
7653;SDS011;3869;48.406;10.774;2022-08-04T11:07:27;804.03;;;733.33;;
7653;SDS011;3869;48.406;10.774;2022-08-04T11:09:58;826.50;;;752.90;;
7653;SDS011;3869;48.406;10.774;2022-08-04T11:12:27;787.20;;;717.53;;
7653;SDS011;3869;48.406;10.774;2022-08-04T11:14:58;805.90;;;734.23;;
7653;SDS011;3869;48.406;10.774;2022-08-04T11:17:35;782.43;;;713.27;;
7653;SDS011;3869;48.406;10.774;2022-08-04T11:20:10;799.50;;;728.73;;
7653;SDS011;3869;48.406;10.774;2022-08-04T11:23:02;784.57;;;714.93;;
7653;SDS011;3869;48.406;10.774;2022-08-04T11:25:35;808.77;;;737.00;;
7653;SDS011;3869;48.406;10.774;2022-08-04T11:28:18;805.33;;;733.67;;
7653;SDS011;3869;48.406;10.774;2022-08-04T11:30:52;819.17;;;746.57;;
7653;SDS011;3869;48.406;10.774;2022-08-04T11:33:30;765.50;;;698.10;;
7653;SDS011;3869;48.406;10.774;2022-08-04T11:36:07;783.00;;;712.63;;
7653;SDS011;3869;48.406;10.774;2022-08-04T11:38:47;789.97;;;718.97;;
7653;SDS011;3869;48.406;10.774;2022-08-04T11:41:21;768.40;;;699.37;;
7653;SDS011;3869;48.406;10.774;2022-08-04T11:44:08;791.67;;;720.83;;
7653;SDS011;3869;48.406;10.774;2022-08-04T11:46:45;807.37;;;736.30;;
7653;SDS011;3869;48.406;10.774;2022-08-04T11:49:23;753.27;;;684.80;;
7653;SDS011;3869;48.406;10.774;2022-08-04T11:51:55;795.10;;;725.13;;
7653;SDS011;3869;48.406;10.774;2022-08-04T11:54:27;763.63;;;695.07;;
7653;SDS011;3869;48.406;10.774;2022-08-04T11:56:57;781.13;;;713.27;;
7653;SDS011;3869;48.406;10.774;2022-08-04T11:59:25;762.17;;;695.77;;
7653;SDS011;3869;48.406;10.774;2022-08-04T12:02:04;724.43;;;659.83;;
7653;SDS011;3869;48.406;10.774;2022-08-04T12:04:49;768.67;;;700.97;;
7653;SDS011;3869;48.406;10.774;2022-08-04T12:07:27;751.73;;;684.57;;
7653;SDS011;3869;48.406;10.774;2022-08-04T12:10:17;741.87;;;676.37;;
7653;SDS011;3869;48.406;10.774;2022-08-04T12:13:10;761.17;;;695.13;;
7653;SDS011;3869;48.406;10.774;2022-08-04T12:15:50;747.57;;;680.47;;
7653;SDS011;3869;48.406;10.774;2022-08-04T12:18:26;717.97;;;654.33;;
7653;SDS011;3869;48.406;10.774;2022-08-04T12:21:03;729.27;;;663.87;;
7653;SDS011;3869;48.406;10.774;2022-08-04T12:23:37;755.50;;;689.40;;
7653;SDS011;3869;48.406;10.774;2022-08-04T12:26:07;764.57;;;697.93;;
7653;SDS011;3869;48.406;10.774;2022-08-04T12:28:42;737.43;;;672.37;;
7653;SDS011;3869;48.406;10.774;2022-08-04T12:31:35;730.53;;;665.47;;
7653;SDS011;3869;48.406;10.774;2022-08-04T12:34:12;740.77;;;676.17;;
7653;SDS011;3869;48.406;10.774;2022-08-04T12:36:47;761.80;;;694.07;;
7653;SDS011;3869;48.406;10.774;2022-08-04T12:39:22;729.17;;;663.70;;
7653;SDS011;3869;48.406;10.774;2022-08-04T12:41:55;727.13;;;661.97;;
7653;SDS011;3869;48.406;10.774;2022-08-04T12:44:30;730.80;;;666.00;;
7653;SDS011;3869;48.406;10.774;2022-08-04T12:47:04;748.00;;;682.47;;
7653;SDS011;3869;48.406;10.774;2022-08-04T12:49:53;746.50;;;680.23;;
7653;SDS011;3869;48.406;10.774;2022-08-04T12:52:29;749.60;;;684.13;;
7653;SDS011;3869;48.406;10.774;2022-08-04T12:55:19;739.97;;;674.77;;
7653;SDS011;3869;48.406;10.774;2022-08-04T12:57:50;739.13;;;673.40;;
7653;SDS011;3869;48.406;10.774;2022-08-04T13:00:23;702.27;;;639.80;;
7653;SDS011;3869;48.406;10.774;2022-08-04T13:02:59;766.60;;;698.87;;
7653;SDS011;3869;48.406;10.774;2022-08-04T13:05:35;718.60;;;654.30;;
7653;SDS011;3869;48.406;10.774;2022-08-04T13:08:07;760.03;;;692.57;;
7653;SDS011;3869;48.406;10.774;2022-08-04T13:10:38;700.37;;;637.63;;
7653;SDS011;3869;48.406;10.774;2022-08-04T13:13:11;749.37;;;683.20;;
7653;SDS011;3869;48.406;10.774;2022-08-04T13:15:42;697.77;;;634.47;;
7653;SDS011;3869;48.406;10.774;2022-08-04T13:18:22;735.27;;;669.27;;
7653;SDS011;3869;48.406;10.774;2022-08-04T13:20:56;769.77;;;701.50;;
7653;SDS011;3869;48.406;10.774;2022-08-04T13:23:57;727.87;;;663.40;;
7653;SDS011;3869;48.406;10.774;2022-08-04T13:26:46;735.27;;;670.07;;
7653;SDS011;3869;48.406;10.774;2022-08-04T13:29:21;743.70;;;678.70;;
7653;SDS011;3869;48.406;10.774;2022-08-04T13:32:14;731.77;;;666.53;;
7653;SDS011;3869;48.406;10.774;2022-08-04T13:34:43;714.77;;;651.37;;
7653;SDS011;3869;48.406;10.774;2022-08-04T13:37:18;717.67;;;654.00;;
7653;SDS011;3869;48.406;10.774;2022-08-04T13:39:50;721.93;;;658.03;;
7653;SDS011;3869;48.406;10.774;2022-08-04T13:42:21;741.00;;;674.33;;
7653;SDS011;3869;48.406;10.774;2022-08-04T13:44:52;714.93;;;652.00;;
7653;SDS011;3869;48.406;10.774;2022-08-04T13:47:23;716.10;;;652.13;;
7653;SDS011;3869;48.406;10.774;2022-08-04T13:50:11;731.70;;;666.70;;
7653;SDS011;3869;48.406;10.774;2022-08-04T13:52:43;730.77;;;667.90;;
7653;SDS011;3869;48.406;10.774;2022-08-04T13:55:22;755.40;;;689.50;;
7653;SDS011;3869;48.406;10.774;2022-08-04T13:57:57;718.97;;;655.97;;
7653;SDS011;3869;48.406;10.774;2022-08-04T14:00:44;716.37;;;652.83;;
7653;SDS011;3869;48.406;10.774;2022-08-04T14:03:20;739.90;;;674.40;;
7653;SDS011;3869;48.406;10.774;2022-08-04T14:06:04;692.10;;;630.00;;
7653;SDS011;3869;48.406;10.774;2022-08-04T14:08:41;701.03;;;637.93;;
7653;SDS011;3869;48.406;10.774;2022-08-04T14:11:14;769.07;;;702.17;;
7653;SDS011;3869;48.406;10.774;2022-08-04T14:14:11;718.40;;;655.30;;
7653;SDS011;3869;48.406;10.774;2022-08-04T14:16:55;691.77;;;629.47;;
7653;SDS011;3869;48.406;10.774;2022-08-04T14:19:28;697.93;;;636.23;;
7653;SDS011;3869;48.406;10.774;2022-08-04T14:22:26;710.37;;;646.40;;
7653;SDS011;3869;48.406;10.774;2022-08-04T14:24:56;731.73;;;666.37;;
7653;SDS011;3869;48.406;10.774;2022-08-04T14:27:28;752.10;;;685.50;;
7653;SDS011;3869;48.406;10.774;2022-08-04T14:29:56;699.07;;;636.40;;
7653;SDS011;3869;48.406;10.774;2022-08-04T14:32:24;735.97;;;671.73;;
7653;SDS011;3869;48.406;10.774;2022-08-04T14:34:53;726.47;;;662.00;;
7653;SDS011;3869;48.406;10.774;2022-08-04T14:37:21;723.47;;;658.93;;
7653;SDS011;3869;48.406;10.774;2022-08-04T14:39:50;717.50;;;653.83;;
7653;SDS011;3869;48.406;10.774;2022-08-04T14:42:41;741.23;;;675.77;;
7653;SDS011;3869;48.406;10.774;2022-08-04T14:45:30;719.77;;;656.07;;
7653;SDS011;3869;48.406;10.774;2022-08-04T14:48:00;743.40;;;676.93;;
7653;SDS011;3869;48.406;10.774;2022-08-04T14:50:33;737.20;;;672.27;;
7653;SDS011;3869;48.406;10.774;2022-08-04T14:53:03;749.67;;;682.50;;
7653;SDS011;3869;48.406;10.774;2022-08-04T14:55:33;735.20;;;670.70;;
7653;SDS011;3869;48.406;10.774;2022-08-04T14:58:03;741.00;;;675.57;;
7653;SDS011;3869;48.406;10.774;2022-08-04T15:00:55;753.53;;;686.77;;
7653;SDS011;3869;48.406;10.774;2022-08-04T15:03:24;721.57;;;658.43;;
7653;SDS011;3869;48.406;10.774;2022-08-04T15:05:54;744.30;;;678.43;;
7653;SDS011;3869;48.406;10.774;2022-08-04T15:08:32;746.47;;;680.97;;
7653;SDS011;3869;48.406;10.774;2022-08-04T15:11:00;732.67;;;667.93;;
7653;SDS011;3869;48.406;10.774;2022-08-04T15:13:30;746.37;;;678.70;;
7653;SDS011;3869;48.406;10.774;2022-08-04T15:15:59;714.70;;;651.90;;
7653;SDS011;3869;48.406;10.774;2022-08-04T15:18:34;716.50;;;652.57;;
7653;SDS011;3869;48.406;10.774;2022-08-04T15:21:04;718.83;;;654.93;;
7653;SDS011;3869;48.406;10.774;2022-08-04T15:23:34;737.70;;;672.10;;
7653;SDS011;3869;48.406;10.774;2022-08-04T15:26:06;731.63;;;666.07;;
7653;SDS011;3869;48.406;10.774;2022-08-04T15:28:40;702.77;;;640.33;;
7653;SDS011;3869;48.406;10.774;2022-08-04T15:31:12;682.13;;;621.00;;
7653;SDS011;3869;48.406;10.774;2022-08-04T15:34:03;727.60;;;664.00;;
7653;SDS011;3869;48.406;10.774;2022-08-04T15:36:34;759.90;;;691.90;;
7653;SDS011;3869;48.406;10.774;2022-08-04T15:39:13;720.63;;;656.57;;
7653;SDS011;3869;48.406;10.774;2022-08-04T15:41:51;742.33;;;676.77;;